Time;durP1;ratioP1;P1;durP2;ratioP2;P2;SDS_P1;SDS_P2;PMS_P1;PMS_P2;Temp;Humidity;BMP_temperature;BMP_pressure;BME280_temperature;BME280_humidity;BME280_pressure;Samples;Min_cycle;Max_cycle;Signal;HPM_P1;HPM_P2
2021/01/20 00:01:03;;;;;;;1.50;1.10;;;2.10;99.90;;;;;;5044443;28;20425;-43
2021/01/20 00:03:29;;;;;;;1.00;0.90;;;2.10;99.90;;;;;;5051072;28;20450;-43
2021/01/20 00:05:56;;;;;;;1.30;1.17;;;2.00;99.90;;;;;;5045004;28;20462;-42
2021/01/20 00:08:22;;;;;;;1.67;0.90;;;2.10;99.90;;;;;;5036398;28;20907;-43
2021/01/20 00:10:48;;;;;;;2.30;1.10;;;2.10;99.90;;;;;;5037132;28;20450;-43
2021/01/20 00:13:16;;;;;;;1.57;1.47;;;2.10;99.90;;;;;;5036607;28;20451;-42
2021/01/20 00:15:42;;;;;;;1.80;1.50;;;2.10;99.90;;;;;;5036266;28;20437;-43
2021/01/20 00:18:09;;;;;;;1.20;1.10;;;2.10;99.90;;;;;;5037183;28;20421;-43
2021/01/20 00:20:35;;;;;;;1.10;1.00;;;2.10;99.90;;;;;;5036413;28;20428;-43
2021/01/20 00:23:02;;;;;;;1.43;1.33;;;2.10;99.90;;;;;;5036364;28;20479;-43
2021/01/20 00:25:28;;;;;;;1.20;1.10;;;2.20;99.90;;;;;;5036165;28;20466;-43
2021/01/20 00:27:55;;;;;;;1.37;1.00;;;2.10;99.90;;;;;;5036258;28;20433;-43
2021/01/20 00:30:23;;;;;;;1.07;0.97;;;2.20;99.90;;;;;;5036145;28;20417;-42
2021/01/20 00:32:50;;;;;;;1.30;1.20;;;2.10;99.90;;;;;;5036203;28;20417;-42
2021/01/20 00:35:21;;;;;;;1.53;1.20;;;2.10;99.90;;;;;;5035972;28;20826;-42
2021/01/20 00:37:48;;;;;;;2.20;1.20;;;2.10;99.90;;;;;;5035997;28;20841;-43
2021/01/20 00:40:15;;;;;;;1.60;1.30;;;2.00;99.90;;;;;;5035705;28;20968;-43
2021/01/20 00:42:41;;;;;;;1.50;1.40;;;2.00;99.90;;;;;;5035740;28;20417;-43
2021/01/20 00:45:09;;;;;;;1.27;1.17;;;2.00;99.90;;;;;;5035892;28;20463;-43
2021/01/20 00:47:36;;;;;;;1.30;1.20;;;2.00;99.90;;;;;;5035190;28;20493;-42
2021/01/20 00:50:03;;;;;;;1.40;1.30;;;2.00;99.90;;;;;;5036440;28;20428;-43
2021/01/20 00:52:30;;;;;;;1.10;1.10;;;2.00;99.90;;;;;;5035526;28;20462;-43
2021/01/20 00:54:56;;;;;;;2.73;1.07;;;1.90;99.90;;;;;;5035776;28;20832;-43
2021/01/20 00:57:22;;;;;;;1.47;1.27;;;1.90;99.90;;;;;;5035655;28;20457;-43
2021/01/20 00:59:48;;;;;;;1.63;0.90;;;2.00;99.90;;;;;;5035624;28;20422;-42
2021/01/20 01:02:15;;;;;;;1.47;1.10;;;2.00;99.90;;;;;;5035757;28;20418;-42
2021/01/20 01:04:42;;;;;;;1.60;1.10;;;2.00;99.90;;;;;;5035182;28;20789;-43
2021/01/20 01:07:09;;;;;;;0.93;0.83;;;2.00;99.90;;;;;;5035226;28;20453;-43
2021/01/20 01:09:36;;;;;;;1.20;0.87;;;2.00;99.90;;;;;;5035270;28;20963;-43
2021/01/20 01:12:03;;;;;;;1.10;1.00;;;2.00;99.90;;;;;;5035356;28;20957;-43
2021/01/20 01:14:29;;;;;;;1.03;1.00;;;2.10;99.90;;;;;;5035350;28;20496;-42
2021/01/20 01:16:56;;;;;;;1.10;1.00;;;2.10;99.90;;;;;;5034989;28;20460;-43
2021/01/20 01:19:22;;;;;;;0.97;0.97;;;2.20;99.90;;;;;;5035075;28;20432;-43
2021/01/20 01:21:49;;;;;;;0.97;0.73;;;2.20;99.90;;;;;;5035627;28;20421;-43
2021/01/20 01:24:16;;;;;;;0.80;0.80;;;2.30;99.90;;;;;;5035380;28;20447;-43
2021/01/20 01:26:42;;;;;;;1.27;1.17;;;2.30;99.90;;;;;;5036672;28;20439;-43
2021/01/20 01:29:08;;;;;;;1.17;1.10;;;2.20;99.90;;;;;;5043521;28;20424;-42
2021/01/20 01:31:34;;;;;;;0.70;0.70;;;2.20;99.90;;;;;;5049475;28;20429;-42
2021/01/20 01:34:01;;;;;;;1.30;1.00;;;2.30;99.90;;;;;;5045858;28;20438;-43
2021/01/20 01:36:27;;;;;;;1.33;0.87;;;2.30;99.90;;;;;;5035354;28;20467;-43
2021/01/20 01:38:54;;;;;;;0.80;0.80;;;2.30;99.90;;;;;;5035276;28;20421;-42
2021/01/20 01:41:20;;;;;;;0.80;0.80;;;2.30;99.90;;;;;;5035561;28;20433;-43
2021/01/20 01:43:46;;;;;;;1.07;1.07;;;2.30;99.90;;;;;;5034822;28;20528;-42
2021/01/20 01:46:13;;;;;;;1.20;1.10;;;2.20;99.90;;;;;;5034703;28;20568;-42
2021/01/20 01:48:39;;;;;;;1.10;1.00;;;2.20;99.90;;;;;;5034846;28;20455;-42
2021/01/20 01:51:05;;;;;;;1.03;0.97;;;2.10;99.90;;;;;;5034452;28;20435;-43
2021/01/20 01:53:32;;;;;;;2.50;0.90;;;2.10;99.90;;;;;;5034586;28;20454;-43
2021/01/20 01:55:59;;;;;;;0.80;0.80;;;2.00;99.90;;;;;;5034584;28;20985;-43
2021/01/20 01:58:25;;;;;;;1.00;0.90;;;2.00;99.90;;;;;;5034488;28;20496;-43
2021/01/20 02:00:54;;;;;;;2.13;1.03;;;1.90;99.90;;;;;;5033684;28;20454;-43
2021/01/20 02:03:20;;;;;;;0.70;0.70;;;1.90;99.90;;;;;;5034200;28;20457;-42
2021/01/20 02:05:47;;;;;;;0.80;0.80;;;1.80;99.90;;;;;;5034612;28;20876;-44
2021/01/20 02:08:14;;;;;;;1.00;0.90;;;1.80;99.90;;;;;;5033964;28;20457;-43
2021/01/20 02:10:40;;;;;;;1.13;0.93;;;1.70;99.90;;;;;;5034043;28;20931;-42
2021/01/20 02:13:19;;;;;;;1.53;1.10;;;1.70;99.90;;;;;;5034029;28;20932;-43
2021/01/20 02:15:53;;;;;;;0.70;0.70;;;1.70;99.90;;;;;;5034057;28;20449;-43
2021/01/20 02:18:22;;;;;;;1.13;1.03;;;1.70;99.90;;;;;;5034380;28;20409;-42
2021/01/20 02:21:18;;;;;;;1.20;0.90;;;1.70;99.90;;;;;;5034097;28;20424;-43
2021/01/20 02:23:45;;;;;;;0.90;0.73;;;1.70;99.90;;;;;;5034017;28;20406;-43
2021/01/20 02:26:22;;;;;;;1.70;1.60;;;1.80;99.90;;;;;;5034027;28;20804;-43
2021/01/20 02:29:07;;;;;;;0.80;0.80;;;1.80;99.90;;;;;;5033812;28;20427;-42
2021/01/20 02:31:35;;;;;;;1.37;0.90;;;1.90;99.90;;;;;;5033999;28;20408;-43
2021/01/20 02:34:08;;;;;;;0.90;0.90;;;2.00;99.90;;;;;;5034674;28;20501;-43
2021/01/20 02:36:35;;;;;;;1.73;1.13;;;2.00;99.90;;;;;;5033848;28;20437;-43
2021/01/20 02:39:02;;;;;;;1.00;0.90;;;2.00;99.90;;;;;;5033805;28;20623;-43
2021/01/20 02:41:29;;;;;;;0.80;0.80;;;2.00;99.90;;;;;;5033989;28;20779;-43
2021/01/20 02:44:00;;;;;;;1.80;1.00;;;2.10;99.90;;;;;;5033767;28;20446;-43
2021/01/20 02:46:27;;;;;;;1.73;0.90;;;2.10;99.90;;;;;;5033456;28;20924;-43
2021/01/20 02:48:54;;;;;;;1.00;0.90;;;2.30;99.90;;;;;;5033677;28;20472;-43
2021/01/20 02:51:27;;;;;;;1.20;1.00;;;2.30;99.90;;;;;;5033670;28;20481;-43
2021/01/20 02:53:56;;;;;;;1.00;0.90;;;2.40;99.90;;;;;;5033713;28;20431;-43
2021/01/20 02:56:25;;;;;;;1.10;1.00;;;2.40;99.90;;;;;;5033278;28;20464;-42
2021/01/20 02:58:53;;;;;;;0.87;0.73;;;2.40;99.90;;;;;;5044850;28;20439;-42
2021/01/20 03:01:22;;;;;;;1.00;1.00;;;2.40;99.90;;;;;;5048918;28;20417;-43
2021/01/20 03:03:51;;;;;;;1.10;1.10;;;2.40;99.90;;;;;;5037731;28;20425;-43
2021/01/20 03:06:18;;;;;;;1.03;1.03;;;2.30;99.90;;;;;;5033475;28;20466;-43
2021/01/20 03:08:46;;;;;;;3.03;1.30;;;2.30;99.90;;;;;;5033538;28;20410;-42
2021/01/20 03:11:12;;;;;;;0.87;0.87;;;2.30;99.90;;;;;;5033274;28;20495;-43
2021/01/20 03:13:41;;;;;;;1.33;1.23;;;2.30;99.90;;;;;;5033376;28;20482;-43
2021/01/20 03:16:08;;;;;;;1.27;1.10;;;2.30;99.90;;;;;;5033196;28;20493;-43
2021/01/20 03:18:34;;;;;;;1.30;1.20;;;2.30;99.90;;;;;;5033371;28;20446;-43
2021/01/20 03:21:01;;;;;;;2.40;1.10;;;2.40;99.90;;;;;;5033349;28;20417;-43
2021/01/20 03:23:29;;;;;;;1.23;1.13;;;2.40;99.90;;;;;;5033295;28;20425;-43
2021/01/20 03:25:56;;;;;;;1.30;1.10;;;2.50;99.90;;;;;;5032866;28;20471;-43
2021/01/20 03:28:23;;;;;;;1.20;1.10;;;2.60;99.90;;;;;;5033253;28;20510;-43
2021/01/20 03:30:49;;;;;;;1.53;1.10;;;2.60;99.90;;;;;;5033247;28;20450;-43
2021/01/20 03:33:15;;;;;;;1.80;1.17;;;2.50;99.90;;;;;;5033248;28;20450;-43
2021/01/20 03:35:42;;;;;;;1.70;1.53;;;2.60;99.90;;;;;;5033037;28;20548;-43
2021/01/20 03:38:08;;;;;;;1.23;0.90;;;2.60;99.90;;;;;;5033083;28;20975;-43
2021/01/20 03:40:35;;;;;;;1.27;1.17;;;2.60;99.90;;;;;;5033179;28;20454;-43
2021/01/20 03:43:02;;;;;;;1.40;1.30;;;2.60;99.90;;;;;;5033674;28;20464;-43
2021/01/20 03:45:28;;;;;;;1.03;0.90;;;2.60;99.90;;;;;;5033023;28;20441;-43
2021/01/20 03:47:54;;;;;;;1.60;1.37;;;2.50;99.90;;;;;;5032720;28;20814;-43
2021/01/20 03:50:21;;;;;;;1.53;1.23;;;2.40;99.90;;;;;;5033074;28;20422;-43
2021/01/20 03:52:47;;;;;;;1.63;1.10;;;2.40;99.90;;;;;;5033046;28;20447;-43
2021/01/20 03:55:13;;;;;;;1.20;0.90;;;2.30;99.90;;;;;;5032833;28;20885;-43
2021/01/20 03:57:41;;;;;;;1.53;1.30;;;2.30;99.90;;;;;;5032843;28;20839;-42
2021/01/20 04:00:07;;;;;;;1.50;1.20;;;2.30;99.90;;;;;;5032985;28;20533;-43
2021/01/20 04:02:34;;;;;;;2.10;1.20;;;2.30;99.90;;;;;;5032906;28;20447;-43
2021/01/20 04:05:00;;;;;;;1.13;0.90;;;2.30;99.90;;;;;;5032896;28;20474;-42
2021/01/20 04:07:26;;;;;;;1.17;1.00;;;2.30;99.90;;;;;;5032419;28;20532;-43
2021/01/20 04:09:52;;;;;;;3.10;1.63;;;2.20;99.90;;;;;;5032885;28;20446;-42
2021/01/20 04:12:19;;;;;;;2.13;1.20;;;2.10;99.90;;;;;;5032635;28;20968;-43
2021/01/20 04:14:46;;;;;;;1.43;1.10;;;2.00;99.90;;;;;;5033126;28;20471;-42
2021/01/20 04:17:12;;;;;;;1.17;1.07;;;2.00;99.90;;;;;;5032788;28;20457;-43
2021/01/20 04:19:38;;;;;;;2.27;1.00;;;1.90;99.90;;;;;;5032961;28;20491;-42
2021/01/20 04:22:06;;;;;;;1.17;1.07;;;1.90;99.90;;;;;;5032974;28;20522;-43
2021/01/20 04:24:32;;;;;;;1.80;1.37;;;1.90;99.90;;;;;;5036276;28;20473;-42
2021/01/20 04:26:58;;;;;;;1.20;1.10;;;1.80;99.90;;;;;;5046771;28;20425;-43
2021/01/20 04:29:24;;;;;;;2.43;1.37;;;1.80;99.90;;;;;;5051302;28;20417;-42
2021/01/20 04:31:51;;;;;;;1.30;1.20;;;1.70;99.90;;;;;;5045009;28;20471;-43
2021/01/20 04:34:18;;;;;;;2.30;1.20;;;1.70;99.90;;;;;;5036072;28;21101;-43
2021/01/20 04:36:50;;;;;;;1.33;1.23;;;1.70;99.90;;;;;;5036225;28;20485;-42
2021/01/20 04:39:17;;;;;;;1.30;1.20;;;1.70;99.90;;;;;;5035673;28;20439;-43
2021/01/20 04:41:43;;;;;;;1.57;1.40;;;1.70;99.90;;;;;;5035010;28;20432;-43
2021/01/20 04:44:09;;;;;;;1.47;1.10;;;1.80;99.90;;;;;;5034384;28;20454;-43
2021/01/20 04:46:37;;;;;;;1.33;1.03;;;1.80;99.90;;;;;;5034804;28;20413;-42
2021/01/20 04:49:07;;;;;;;1.93;1.40;;;1.80;99.90;;;;;;5036045;28;20458;-43
2021/01/20 04:51:38;;;;;;;2.47;1.30;;;1.80;99.90;;;;;;5034883;28;20425;-43
2021/01/20 04:54:06;;;;;;;1.20;1.10;;;1.80;99.90;;;;;;5036268;28;20406;-43
2021/01/20 04:56:32;;;;;;;1.37;1.20;;;1.90;99.90;;;;;;5035639;28;20510;-43
2021/01/20 04:58:59;;;;;;;2.60;1.40;;;1.90;99.90;;;;;;5035503;28;20940;-42
2021/01/20 05:01:26;;;;;;;2.03;1.70;;;1.90;99.90;;;;;;5035307;28;20908;-43
2021/01/20 05:03:54;;;;;;;3.70;1.13;;;1.90;99.90;;;;;;5035540;28;20436;-43
2021/01/20 05:06:24;;;;;;;1.50;1.40;;;1.90;99.90;;;;;;5035281;28;20463;-42
2021/01/20 05:08:50;;;;;;;2.40;1.63;;;1.90;99.90;;;;;;5035665;28;20426;-43
2021/01/20 05:11:16;;;;;;;2.67;1.40;;;1.90;99.90;;;;;;5035439;28;20789;-43
2021/01/20 05:13:44;;;;;;;1.37;1.27;;;1.90;99.90;;;;;;5035044;28;20439;-43
2021/01/20 05:16:25;;;;;;;1.60;1.30;;;2.00;99.90;;;;;;5035676;28;20828;-43
2021/01/20 05:18:51;;;;;;;1.63;1.27;;;2.00;99.90;;;;;;5035059;28;20905;-43
2021/01/20 05:21:18;;;;;;;1.70;1.20;;;2.00;99.90;;;;;;5035339;28;20461;-43
2021/01/20 05:23:45;;;;;;;1.97;1.40;;;2.10;99.90;;;;;;5035255;28;20428;-43
2021/01/20 05:26:11;;;;;;;1.73;1.37;;;2.20;99.90;;;;;;5035146;28;20503;-43
2021/01/20 05:28:38;;;;;;;1.70;1.40;;;2.20;99.90;;;;;;5035134;28;20433;-43
2021/01/20 05:31:05;;;;;;;1.87;1.20;;;2.20;99.90;;;;;;5035071;28;20416;-43
2021/01/20 05:33:36;;;;;;;1.50;1.30;;;2.30;99.90;;;;;;5035018;28;20447;-43
2021/01/20 05:36:05;;;;;;;1.60;1.10;;;2.30;99.90;;;;;;5034793;28;20959;-42
2021/01/20 05:38:36;;;;;;;1.33;1.23;;;2.30;99.90;;;;;;5034964;28;20421;-43
2021/01/20 05:41:16;;;;;;;1.40;1.30;;;2.40;99.90;;;;;;5034919;28;20857;-43
2021/01/20 05:43:42;;;;;;;2.50;1.57;;;2.50;99.90;;;;;;5034853;28;20437;-43
2021/01/20 05:46:09;;;;;;;2.60;1.37;;;2.50;99.90;;;;;;5034431;28;21003;-42
2021/01/20 05:48:45;;;;;;;1.30;1.20;;;2.60;99.90;;;;;;5034728;28;20458;-43
2021/01/20 05:51:11;;;;;;;2.20;1.37;;;2.70;99.90;;;;;;5034583;28;20484;-43
2021/01/20 05:53:51;;;;;;;1.60;1.50;;;2.70;99.90;;;;;;5034848;28;20413;-43
2021/01/20 05:56:24;;;;;;;1.60;1.10;;;2.70;99.90;;;;;;5044194;28;20478;-43
2021/01/20 05:58:51;;;;;;;1.40;1.23;;;2.80;99.90;;;;;;5049569;28;20465;-43
2021/01/20 06:01:18;;;;;;;1.90;1.20;;;2.80;99.90;;;;;;5040275;28;20504;-43
2021/01/20 06:03:45;;;;;;;1.30;1.20;;;2.80;99.90;;;;;;5034694;28;20470;-43
2021/01/20 06:06:13;;;;;;;1.43;1.10;;;2.80;99.90;;;;;;5034392;28;20449;-43
2021/01/20 06:08:39;;;;;;;1.50;1.17;;;2.80;99.90;;;;;;5034101;28;20438;-43
2021/01/20 06:11:06;;;;;;;3.33;1.00;;;2.90;99.90;;;;;;5035713;28;20438;-44
2021/01/20 06:13:34;;;;;;;1.70;0.93;;;2.90;99.90;;;;;;5034127;28;21026;-43
2021/01/20 06:16:11;;;;;;;1.30;0.90;;;2.90;99.90;;;;;;5034178;28;20551;-43
2021/01/20 06:18:38;;;;;;;1.40;1.30;;;3.00;99.90;;;;;;5034240;28;20423;-43
2021/01/20 06:21:05;;;;;;;1.00;0.90;;;3.00;99.90;;;;;;5034050;28;20472;-43
2021/01/20 06:23:35;;;;;;;1.20;0.90;;;3.00;99.90;;;;;;5034028;28;20450;-43
2021/01/20 06:26:09;;;;;;;1.10;0.93;;;3.10;99.90;;;;;;5033780;28;20448;-44
2021/01/20 06:28:39;;;;;;;1.13;0.90;;;3.10;99.90;;;;;;5033765;28;20501;-43
2021/01/20 06:31:08;;;;;;;1.33;0.80;;;3.10;99.90;;;;;;5034184;28;20443;-43
2021/01/20 06:33:34;;;;;;;1.57;1.47;;;3.20;99.90;;;;;;5033864;28;20454;-44
2021/01/20 06:36:01;;;;;;;1.10;0.80;;;3.20;99.90;;;;;;5033476;28;20481;-43
2021/01/20 06:38:35;;;;;;;2.80;1.53;;;3.30;99.90;;;;;;5033762;28;20479;-43
2021/01/20 06:41:07;;;;;;;1.33;1.13;;;3.30;99.90;;;;;;5033774;28;20458;-44
2021/01/20 06:43:39;;;;;;;0.80;0.80;;;3.40;99.90;;;;;;5034342;28;20465;-44
2021/01/20 06:46:27;;;;;;;1.10;0.90;;;3.40;99.90;;;;;;5032941;28;20477;-43
2021/01/20 06:49:12;;;;;;;1.03;0.93;;;3.40;99.90;;;;;;5030210;28;20450;-43
2021/01/20 06:51:43;;;;;;;1.43;1.23;;;3.50;99.90;;;;;;5033259;28;20936;-43
2021/01/20 06:54:14;;;;;;;1.77;1.43;;;3.50;99.90;;;;;;5033433;28;20425;-43
2021/01/20 06:56:43;;;;;;;1.33;1.10;;;3.50;99.90;;;;;;5033456;28;20532;-43
2021/01/20 06:59:24;;;;;;;1.63;1.43;;;3.50;99.90;;;;;;5033461;28;20447;-43
2021/01/20 07:02:14;;;;;;;2.23;1.13;;;3.50;99.90;;;;;;5033535;28;20443;-43
2021/01/20 07:05:08;;;;;;;1.10;1.00;;;3.50;99.90;;;;;;5033087;28;20502;-43
2021/01/20 07:08:01;;;;;;;1.03;0.97;;;3.60;99.90;;;;;;5034697;28;20478;-43
2021/01/20 07:10:30;;;;;;;1.00;1.00;;;3.60;99.90;;;;;;5033994;28;20427;-43
2021/01/20 07:13:17;;;;;;;1.43;1.00;;;3.50;99.90;;;;;;5033514;28;20455;-43
2021/01/20 07:15:50;;;;;;;1.20;0.80;;;3.60;99.90;;;;;;5033406;28;20664;-43
2021/01/20 07:18:17;;;;;;;1.40;1.20;;;3.60;99.90;;;;;;5033768;28;20469;-43
2021/01/20 07:20:45;;;;;;;1.80;1.10;;;3.60;99.90;;;;;;5034633;28;20450;-43
2021/01/20 07:23:11;;;;;;;1.53;1.37;;;3.60;99.90;;;;;;5034588;28;20454;-44
2021/01/20 07:25:38;;;;;;;2.03;1.50;;;3.70;99.90;;;;;;5043393;28;20471;-44
2021/01/20 07:28:04;;;;;;;2.50;1.70;;;3.70;99.90;;;;;;5044697;28;20438;-43
2021/01/20 07:30:31;;;;;;;1.20;1.10;;;3.70;99.90;;;;;;5036664;28;20447;-44
2021/01/20 07:32:59;;;;;;;1.53;1.40;;;3.70;99.90;;;;;;5033726;28;20447;-43
2021/01/20 07:35:26;;;;;;;2.77;1.50;;;3.70;99.90;;;;;;5033301;28;20448;-43
2021/01/20 07:38:04;;;;;;;2.10;1.40;;;3.80;99.90;;;;;;5033185;28;20843;-43
2021/01/20 07:40:31;;;;;;;3.20;1.63;;;3.80;99.90;;;;;;5033171;28;20458;-43
2021/01/20 07:42:58;;;;;;;2.50;1.53;;;3.70;99.90;;;;;;5033186;28;20425;-43
2021/01/20 07:45:36;;;;;;;1.47;1.33;;;3.70;99.90;;;;;;5032794;28;21043;-43
2021/01/20 07:48:06;;;;;;;1.40;1.30;;;3.70;99.90;;;;;;5033207;28;20431;-44
2021/01/20 07:50:45;;;;;;;2.13;1.93;;;3.70;99.90;;;;;;5033154;28;20477;-43
2021/01/20 07:53:16;;;;;;;2.10;1.90;;;3.70;99.90;;;;;;5033166;28;20435;-44
2021/01/20 07:55:44;;;;;;;1.90;1.80;;;3.70;99.90;;;;;;5033016;28;20462;-43
2021/01/20 07:58:10;;;;;;;2.00;1.73;;;3.80;99.90;;;;;;5033797;28;20474;-43
2021/01/20 08:00:47;;;;;;;4.23;1.67;;;3.80;99.90;;;;;;5036771;28;20442;-44
2021/01/20 08:03:15;;;;;;;2.30;2.10;;;3.70;99.90;;;;;;5037129;28;20454;-43
2021/01/20 08:05:43;;;;;;;2.80;1.80;;;3.70;99.90;;;;;;5037147;28;20462;-43
2021/01/20 08:08:11;;;;;;;2.57;2.27;;;3.70;99.90;;;;;;5036726;28;20485;-43
2021/01/20 08:10:38;;;;;;;3.17;2.60;;;3.70;99.90;;;;;;5037135;28;20920;-43
2021/01/20 08:13:07;;;;;;;4.30;2.60;;;3.80;99.90;;;;;;5037305;28;20435;-43
2021/01/20 08:15:36;;;;;;;5.90;2.93;;;3.80;99.90;;;;;;5037050;28;20470;-43
2021/01/20 08:18:03;;;;;;;2.87;2.03;;;3.70;99.90;;;;;;5036724;28;20470;-43
2021/01/20 08:20:34;;;;;;;2.90;2.13;;;3.70;99.90;;;;;;5036516;28;20430;-43
2021/01/20 08:23:03;;;;;;;8.73;3.10;;;3.80;99.90;;;;;;5036668;28;20446;-43
2021/01/20 08:25:30;;;;;;;4.70;3.17;;;3.70;99.90;;;;;;5036435;28;20834;-44
2021/01/20 08:27:56;;;;;;;3.30;3.00;;;3.70;99.90;;;;;;5036383;28;20427;-44
2021/01/20 08:30:29;;;;;;;2.70;2.50;;;3.70;99.90;;;;;;5036395;28;20447;-43
2021/01/20 08:32:57;;;;;;;4.63;3.00;;;3.70;99.90;;;;;;5035941;28;20447;-43
2021/01/20 08:35:30;;;;;;;3.40;3.10;;;3.70;99.90;;;;;;5035811;28;20473;-43
2021/01/20 08:37:58;;;;;;;3.33;2.97;;;3.70;99.90;;;;;;5036175;28;20497;-43
2021/01/20 08:40:25;;;;;;;4.53;3.20;;;3.60;99.90;;;;;;5036145;28;20447;-43
2021/01/20 08:42:51;;;;;;;3.03;2.40;;;3.60;99.90;;;;;;5036110;28;20447;-44
2021/01/20 08:45:30;;;;;;;2.73;2.53;;;3.70;99.90;;;;;;5036032;28;20469;-44
2021/01/20 08:47:59;;;;;;;3.53;2.53;;;3.70;99.90;;;;;;5036037;28;20467;-43
2021/01/20 08:50:40;;;;;;;2.67;2.47;;;3.70;99.90;;;;;;5036029;28;20454;-43
2021/01/20 08:53:08;;;;;;;3.03;2.70;;;3.70;99.90;;;;;;5037051;28;20816;-43
2021/01/20 08:55:36;;;;;;;3.00;2.70;;;3.80;99.90;;;;;;5045876;28;20558;-43
2021/01/20 08:58:26;;;;;;;4.77;2.60;;;3.80;99.90;;;;;;5045601;28;20602;-43
2021/01/20 09:00:55;;;;;;;3.70;3.10;;;3.80;99.90;;;;;;5035787;28;20435;-43
2021/01/20 09:03:23;;;;;;;2.70;2.50;;;3.80;99.90;;;;;;5036647;28;20455;-42
2021/01/20 09:05:51;;;;;;;4.63;3.07;;;3.80;99.90;;;;;;5035707;28;20846;-43
2021/01/20 09:08:18;;;;;;;3.53;2.83;;;3.90;99.90;;;;;;5035375;28;20983;-43
2021/01/20 09:10:46;;;;;;;4.30;3.17;;;3.90;99.90;;;;;;5035203;28;20457;-43
2021/01/20 09:13:13;;;;;;;4.33;3.03;;;3.80;99.90;;;;;;5035409;28;20450;-43
2021/01/20 09:15:40;;;;;;;3.30;3.00;;;3.80;99.90;;;;;;5035340;28;20466;-43
2021/01/20 09:18:07;;;;;;;3.30;3.00;;;3.80;99.90;;;;;;5035230;28;20483;-43
2021/01/20 09:20:34;;;;;;;4.57;3.83;;;3.90;99.90;;;;;;5035068;28;20445;-42
2021/01/20 09:23:00;;;;;;;3.43;2.73;;;4.00;99.90;;;;;;5035213;28;20442;-43
2021/01/20 09:25:28;;;;;;;3.93;2.90;;;4.00;99.90;;;;;;5035297;28;20478;-43
2021/01/20 09:27:54;;;;;;;4.10;3.30;;;4.00;99.90;;;;;;5035212;28;20454;-43
2021/01/20 09:30:21;;;;;;;6.00;3.23;;;4.00;99.90;;;;;;5035092;28;20446;-42
2021/01/20 09:32:47;;;;;;;4.10;3.07;;;4.10;99.90;;;;;;5035901;28;20459;-43
2021/01/20 09:35:15;;;;;;;4.03;3.20;;;4.10;99.90;;;;;;5035019;28;20471;-43
2021/01/20 09:37:42;;;;;;;4.50;2.90;;;4.00;99.90;;;;;;5034889;28;20478;-43
2021/01/20 09:40:10;;;;;;;5.00;3.40;;;4.10;99.90;;;;;;5034822;28;20953;-43
2021/01/20 09:42:38;;;;;;;3.90;3.50;;;4.10;99.90;;;;;;5034507;28;20457;-43
2021/01/20 09:45:07;;;;;;;6.50;3.43;;;4.20;99.90;;;;;;5034785;28;20474;-43
2021/01/20 09:47:35;;;;;;;6.50;3.00;;;4.20;99.90;;;;;;5034540;28;20972;-43
2021/01/20 09:50:02;;;;;;;3.57;2.60;;;4.30;99.90;;;;;;5034421;28;20484;-43
2021/01/20 09:52:28;;;;;;;3.33;2.60;;;4.30;99.90;;;;;;5034693;28;20450;-43
2021/01/20 09:54:55;;;;;;;5.07;2.40;;;4.30;99.90;;;;;;5034645;28;20470;-43
2021/01/20 09:57:22;;;;;;;4.33;2.80;;;4.40;99.90;;;;;;5034735;28;20474;-43
2021/01/20 10:00:02;;;;;;;2.23;1.87;;;4.50;99.90;;;;;;5034794;28;20485;-43
2021/01/20 10:02:29;;;;;;;3.50;2.33;;;4.50;99.90;;;;;;5026210;22;20441;-43
2021/01/20 10:04:56;;;;;;;2.73;2.53;;;4.60;99.90;;;;;;5034560;28;20516;-43
2021/01/20 10:07:23;;;;;;;3.10;2.27;;;4.80;99.90;;;;;;5035525;28;20502;-44
2021/01/20 10:09:49;;;;;;;2.90;2.60;;;4.90;99.90;;;;;;5034391;28;20446;-44
2021/01/20 10:12:18;;;;;;;2.93;2.47;;;5.00;99.90;;;;;;5034570;28;20435;-44
2021/01/20 10:14:45;;;;;;;3.00;2.47;;;5.10;99.90;;;;;;5034199;28;20813;-44
2021/01/20 10:17:15;;;;;;;2.20;2.10;;;5.30;99.90;;;;;;5034338;28;20473;-44
2021/01/20 10:19:42;;;;;;;2.90;2.43;;;5.40;99.90;;;;;;5035337;28;20533;-44
2021/01/20 10:22:10;;;;;;;2.63;2.00;;;5.50;99.90;;;;;;5037187;28;20493;-44
2021/01/20 10:24:36;;;;;;;2.30;2.10;;;5.60;99.90;;;;;;5041805;28;20478;-44
2021/01/20 10:27:05;;;;;;;4.83;2.13;;;5.60;99.90;;;;;;5040125;28;20423;-45
2021/01/20 10:29:31;;;;;;;7.30;2.40;;;5.70;99.90;;;;;;5034169;28;20432;-44
2021/01/20 10:31:57;;;;;;;2.83;2.63;;;5.70;99.90;;;;;;5034155;28;20470;-45
2021/01/20 10:34:25;;;;;;;4.30;3.53;;;5.70;99.90;;;;;;5034015;28;20473;-44
2021/01/20 10:36:52;;;;;;;3.97;2.90;;;5.70;99.90;;;;;;5033773;28;20457;-45
2021/01/20 10:39:18;;;;;;;3.07;2.80;;;5.80;99.90;;;;;;5034083;28;20522;-44
2021/01/20 10:41:48;;;;;;;3.37;2.77;;;5.90;99.90;;;;;;5033527;28;20805;-44
2021/01/20 10:44:15;;;;;;;2.60;2.13;;;5.90;99.90;;;;;;5033871;28;20447;-44
2021/01/20 10:46:41;;;;;;;3.23;2.93;;;5.90;99.90;;;;;;5033826;28;20470;-44
2021/01/20 10:49:07;;;;;;;6.97;2.50;;;6.00;99.90;;;;;;5033853;28;20426;-44
2021/01/20 10:51:34;;;;;;;3.33;2.93;;;6.00;99.90;;;;;;5033782;28;20431;-44
2021/01/20 10:54:01;;;;;;;4.80;3.27;;;6.00;99.90;;;;;;5033648;28;20461;-45
2021/01/20 10:56:28;;;;;;;3.80;2.87;;;6.00;99.90;;;;;;5033880;28;20802;-45
2021/01/20 10:58:54;;;;;;;3.20;2.60;;;6.10;99.90;;;;;;5033568;28;20597;-44
2021/01/20 11:01:20;;;;;;;3.80;2.90;;;6.10;99.90;;;;;;5033580;28;20423;-44
2021/01/20 11:03:47;;;;;;;3.23;2.77;;;6.10;99.90;;;;;;5033224;28;20478;-44
2021/01/20 11:06:13;;;;;;;2.23;2.03;;;6.20;99.90;;;;;;5033338;28;20470;-44
2021/01/20 11:08:40;;;;;;;2.80;2.00;;;6.20;99.90;;;;;;5033508;28;20431;-45
2021/01/20 11:11:07;;;;;;;2.17;1.60;;;6.30;99.90;;;;;;5033467;28;20431;-45
2021/01/20 11:13:35;;;;;;;3.37;2.13;;;6.30;99.90;;;;;;5033355;28;20439;-44
2021/01/20 11:16:03;;;;;;;2.80;2.40;;;6.20;99.70;;;;;;5033400;28;20466;-44
2021/01/20 11:18:44;;;;;;;1.80;1.70;;;6.10;99.60;;;;;;5033212;28;20520;-45
2021/01/20 11:21:14;;;;;;;2.93;2.10;;;6.10;99.60;;;;;;5033587;28;20427;-45
2021/01/20 11:23:51;;;;;;;2.10;1.93;;;6.10;99.90;;;;;;5034327;28;20463;-45
2021/01/20 11:26:18;;;;;;;3.80;2.20;;;6.10;99.90;;;;;;5032953;28;20509;-45
2021/01/20 11:28:44;;;;;;;3.90;2.57;;;6.00;99.80;;;;;;5033211;28;20462;-44
2021/01/20 11:31:10;;;;;;;2.80;2.53;;;6.00;99.90;;;;;;5033211;28;20427;-45
2021/01/20 11:33:37;;;;;;;3.37;2.53;;;6.00;99.70;;;;;;5036557;28;20924;-44
2021/01/20 11:36:04;;;;;;;2.40;2.20;;;6.00;99.50;;;;;;5039510;28;21007;-45
2021/01/20 11:38:30;;;;;;;2.57;2.37;;;6.00;99.40;;;;;;5038560;28;20847;-45
2021/01/20 11:40:57;;;;;;;3.60;3.00;;;5.90;99.90;;;;;;5038378;28;20446;-44
2021/01/20 11:43:24;;;;;;;4.10;2.80;;;5.90;99.90;;;;;;5038134;28;20442;-44
2021/01/20 11:45:50;;;;;;;4.93;2.53;;;5.90;99.90;;;;;;5039079;28;20458;-44
2021/01/20 11:48:16;;;;;;;5.47;2.53;;;5.80;99.90;;;;;;5040186;28;20431;-44
2021/01/20 11:50:43;;;;;;;3.03;2.17;;;5.80;99.90;;;;;;5044455;28;20431;-44
2021/01/20 11:53:21;;;;;;;5.20;3.37;;;5.80;99.90;;;;;;5045115;28;20901;-44
2021/01/20 11:55:49;;;;;;;3.43;2.80;;;5.80;99.90;;;;;;5039357;28;20523;-44
2021/01/20 11:58:16;;;;;;;3.67;2.73;;;5.90;99.90;;;;;;5037012;28;20469;-44
2021/01/20 12:00:42;;;;;;;4.30;2.80;;;5.90;99.90;;;;;;5037181;28;20442;-44
2021/01/20 12:03:08;;;;;;;4.60;2.97;;;5.90;99.90;;;;;;5036726;28;20478;-44
2021/01/20 12:05:35;;;;;;;3.47;2.93;;;5.90;99.90;;;;;;5036627;28;20473;-44
2021/01/20 12:08:01;;;;;;;4.90;3.50;;;5.90;99.90;;;;;;5036758;28;20422;-44
2021/01/20 12:10:28;;;;;;;2.93;2.63;;;5.90;99.90;;;;;;5036647;28;20431;-45
2021/01/20 12:12:54;;;;;;;3.87;3.27;;;5.90;99.90;;;;;;5036377;28;20830;-45
2021/01/20 12:15:21;;;;;;;4.77;3.37;;;5.90;99.90;;;;;;5036555;28;20474;-45
2021/01/20 12:17:47;;;;;;;3.77;3.47;;;5.80;99.90;;;;;;5036475;28;20469;-45
2021/01/20 12:20:14;;;;;;;3.67;3.20;;;5.90;99.90;;;;;;5036507;28;20437;-44
2021/01/20 12:22:40;;;;;;;3.50;3.20;;;5.90;99.90;;;;;;5036159;28;20430;-44
2021/01/20 12:25:07;;;;;;;3.67;3.30;;;5.90;99.90;;;;;;5036488;28;20462;-44
2021/01/20 12:27:37;;;;;;;3.50;2.97;;;5.90;99.90;;;;;;5036400;28;20426;-44
2021/01/20 12:30:04;;;;;;;3.07;2.77;;;5.90;99.90;;;;;;5036440;28;20441;-44
2021/01/20 12:32:38;;;;;;;3.97;3.23;;;5.90;99.90;;;;;;5036442;28;20442;-44
2021/01/20 12:35:12;;;;;;;4.30;3.63;;;5.90;99.90;;;;;;5036752;28;20473;-45
2021/01/20 12:37:38;;;;;;;5.93;3.37;;;5.90;99.90;;;;;;5036619;28;20482;-45
2021/01/20 12:40:06;;;;;;;5.40;3.83;;;5.90;99.90;;;;;;5036211;28;20442;-44
2021/01/20 12:42:32;;;;;;;4.20;3.60;;;5.90;99.90;;;;;;5035867;28;20438;-44
2021/01/20 12:44:58;;;;;;;3.97;3.20;;;5.90;99.90;;;;;;5035199;28;20470;-44
2021/01/20 12:47:25;;;;;;;5.13;3.10;;;5.90;99.90;;;;;;5035677;28;20902;-45
2021/01/20 12:49:52;;;;;;;4.20;3.07;;;5.90;99.90;;;;;;5035920;28;20435;-44
2021/01/20 12:52:18;;;;;;;2.93;2.70;;;5.90;99.90;;;;;;5035897;28;20427;-44
2021/01/20 12:54:45;;;;;;;4.13;3.37;;;6.00;99.90;;;;;;5035517;28;20892;-44
2021/01/20 12:57:11;;;;;;;3.83;2.80;;;6.00;99.90;;;;;;5035766;28;20470;-44
2021/01/20 12:59:37;;;;;;;4.10;3.00;;;6.00;99.90;;;;;;5035732;28;20431;-44
2021/01/20 13:02:03;;;;;;;4.47;3.17;;;6.00;99.90;;;;;;5035827;28;20450;-44
2021/01/20 13:04:30;;;;;;;8.63;2.97;;;6.10;99.90;;;;;;5035233;28;20493;-44